sensor_id;sensor_type;location;lat;lon;timestamp;P1;durP1;ratioP1;P2;durP2;ratioP2
75005;SDS011;63553;51.814;4.600;2022-11-11T00:00:22;15.10;;;7.90;;
75005;SDS011;63553;51.814;4.600;2022-11-11T00:02:47;9.18;;;7.22;;
75005;SDS011;63553;51.814;4.600;2022-11-11T00:05:14;14.13;;;7.53;;
75005;SDS011;63553;51.814;4.600;2022-11-11T00:07:40;13.65;;;8.18;;
75005;SDS011;63553;51.814;4.600;2022-11-11T00:10:06;13.43;;;8.15;;
75005;SDS011;63553;51.814;4.600;2022-11-11T00:12:32;17.85;;;8.65;;
75005;SDS011;63553;51.814;4.600;2022-11-11T00:14:57;16.45;;;8.52;;
75005;SDS011;63553;51.814;4.600;2022-11-11T00:17:23;13.07;;;8.20;;
75005;SDS011;63553;51.814;4.600;2022-11-11T00:20:08;14.20;;;8.27;;
75005;SDS011;63553;51.814;4.600;2022-11-11T00:22:53;13.75;;;8.70;;
75005;SDS011;63553;51.814;4.600;2022-11-11T00:25:36;13.52;;;8.50;;
75005;SDS011;63553;51.814;4.600;2022-11-11T00:28:02;15.53;;;10.07;;
75005;SDS011;63553;51.814;4.600;2022-11-11T00:30:27;17.58;;;9.82;;
75005;SDS011;63553;51.814;4.600;2022-11-11T00:32:53;14.40;;;9.50;;
75005;SDS011;63553;51.814;4.600;2022-11-11T00:35:18;13.03;;;8.47;;
75005;SDS011;63553;51.814;4.600;2022-11-11T00:38:06;17.48;;;10.32;;
75005;SDS011;63553;51.814;4.600;2022-11-11T00:40:32;14.25;;;9.38;;
75005;SDS011;63553;51.814;4.600;2022-11-11T00:42:58;16.52;;;9.27;;
75005;SDS011;63553;51.814;4.600;2022-11-11T00:45:23;14.60;;;8.80;;
75005;SDS011;63553;51.814;4.600;2022-11-11T00:47:48;15.97;;;8.87;;
75005;SDS011;63553;51.814;4.600;2022-11-11T00:50:32;15.95;;;9.52;;
75005;SDS011;63553;51.814;4.600;2022-11-11T00:53:17;17.27;;;10.10;;
75005;SDS011;63553;51.814;4.600;2022-11-11T00:58:12;17.97;;;10.30;;
75005;SDS011;63553;51.814;4.600;2022-11-11T01:00:37;18.10;;;10.73;;
75005;SDS011;63553;51.814;4.600;2022-11-11T01:03:03;16.17;;;9.65;;
75005;SDS011;63553;51.814;4.600;2022-11-11T01:05:29;16.52;;;9.80;;
75005;SDS011;63553;51.814;4.600;2022-11-11T01:07:54;15.80;;;8.93;;
75005;SDS011;63553;51.814;4.600;2022-11-11T01:10:20;16.23;;;10.10;;
75005;SDS011;63553;51.814;4.600;2022-11-11T01:13:16;18.77;;;10.10;;
75005;SDS011;63553;51.814;4.600;2022-11-11T01:15:43;22.08;;;10.63;;
75005;SDS011;63553;51.814;4.600;2022-11-11T01:18:11;18.17;;;10.63;;
75005;SDS011;63553;51.814;4.600;2022-11-11T01:20:38;22.23;;;11.10;;
75005;SDS011;63553;51.814;4.600;2022-11-11T01:23:04;19.95;;;10.38;;
75005;SDS011;63553;51.814;4.600;2022-11-11T01:25:33;16.52;;;9.40;;
75005;SDS011;63553;51.814;4.600;2022-11-11T01:28:00;19.27;;;9.95;;
75005;SDS011;63553;51.814;4.600;2022-11-11T01:30:26;19.27;;;9.95;;
75005;SDS011;63553;51.814;4.600;2022-11-11T01:32:51;18.13;;;10.35;;
75005;SDS011;63553;51.814;4.600;2022-11-11T01:35:17;17.03;;;9.30;;
75005;SDS011;63553;51.814;4.600;2022-11-11T01:37:42;20.97;;;9.73;;
75005;SDS011;63553;51.814;4.600;2022-11-11T01:40:08;19.50;;;9.87;;
75005;SDS011;63553;51.814;4.600;2022-11-11T01:45:47;17.92;;;10.13;;
75005;SDS011;63553;51.814;4.600;2022-11-11T01:48:21;20.77;;;10.60;;
75005;SDS011;63553;51.814;4.600;2022-11-11T01:53:51;17.35;;;9.43;;
75005;SDS011;63553;51.814;4.600;2022-11-11T01:56:22;21.20;;;10.93;;
75005;SDS011;63553;51.814;4.600;2022-11-11T01:58:48;20.52;;;10.82;;
75005;SDS011;63553;51.814;4.600;2022-11-11T02:01:16;23.92;;;10.70;;
75005;SDS011;63553;51.814;4.600;2022-11-11T02:03:41;18.50;;;10.20;;
75005;SDS011;63553;51.814;4.600;2022-11-11T02:06:29;18.08;;;10.48;;
75005;SDS011;63553;51.814;4.600;2022-11-11T02:08:55;17.40;;;10.82;;
75005;SDS011;63553;51.814;4.600;2022-11-11T02:11:20;22.07;;;11.33;;
75005;SDS011;63553;51.814;4.600;2022-11-11T02:14:08;20.48;;;10.85;;
75005;SDS011;63553;51.814;4.600;2022-11-11T02:16:52;20.33;;;10.68;;
75005;SDS011;63553;51.814;4.600;2022-11-11T02:19:18;22.73;;;10.37;;
75005;SDS011;63553;51.814;4.600;2022-11-11T02:21:52;21.33;;;10.85;;
75005;SDS011;63553;51.814;4.600;2022-11-11T02:24:24;22.25;;;10.57;;
75005;SDS011;63553;51.814;4.600;2022-11-11T02:26:51;17.02;;;9.80;;
75005;SDS011;63553;51.814;4.600;2022-11-11T02:29:19;20.05;;;9.90;;
75005;SDS011;63553;51.814;4.600;2022-11-11T02:31:46;19.77;;;10.10;;
75005;SDS011;63553;51.814;4.600;2022-11-11T02:34:12;15.82;;;9.63;;
75005;SDS011;63553;51.814;4.600;2022-11-11T02:36:37;18.03;;;9.57;;
75005;SDS011;63553;51.814;4.600;2022-11-11T02:39:04;18.02;;;10.02;;
75005;SDS011;63553;51.814;4.600;2022-11-11T02:41:29;17.70;;;9.73;;
75005;SDS011;63553;51.814;4.600;2022-11-11T02:44:13;20.20;;;10.55;;
75005;SDS011;63553;51.814;4.600;2022-11-11T02:46:39;18.37;;;9.93;;
75005;SDS011;63553;51.814;4.600;2022-11-11T02:49:04;19.00;;;9.50;;
75005;SDS011;63553;51.814;4.600;2022-11-11T02:51:29;15.70;;;8.73;;
75005;SDS011;63553;51.814;4.600;2022-11-11T02:53:55;15.63;;;8.87;;
75005;SDS011;63553;51.814;4.600;2022-11-11T02:56:23;21.02;;;9.68;;
75005;SDS011;63553;51.814;4.600;2022-11-11T02:59:07;15.90;;;9.80;;
75005;SDS011;63553;51.814;4.600;2022-11-11T03:01:32;18.60;;;9.60;;
75005;SDS011;63553;51.814;4.600;2022-11-11T03:03:58;18.70;;;9.67;;
75005;SDS011;63553;51.814;4.600;2022-11-11T03:06:23;17.00;;;9.27;;
75005;SDS011;63553;51.814;4.600;2022-11-11T03:08:48;20.47;;;10.27;;
75005;SDS011;63553;51.814;4.600;2022-11-11T03:11:14;20.27;;;10.20;;
75005;SDS011;63553;51.814;4.600;2022-11-11T03:13:39;21.35;;;10.85;;
75005;SDS011;63553;51.814;4.600;2022-11-11T03:16:04;25.40;;;11.40;;
75005;SDS011;63553;51.814;4.600;2022-11-11T03:18:30;21.10;;;11.52;;
75005;SDS011;63553;51.814;4.600;2022-11-11T03:20:55;20.07;;;9.60;;
75005;SDS011;63553;51.814;4.600;2022-11-11T03:23:29;19.10;;;10.35;;
75005;SDS011;63553;51.814;4.600;2022-11-11T03:25:54;17.88;;;10.23;;
75005;SDS011;63553;51.814;4.600;2022-11-11T03:28:20;17.07;;;9.73;;
75005;SDS011;63553;51.814;4.600;2022-11-11T03:30:46;16.48;;;9.70;;
75005;SDS011;63553;51.814;4.600;2022-11-11T03:33:14;16.10;;;9.68;;
75005;SDS011;63553;51.814;4.600;2022-11-11T03:35:40;12.70;;;8.50;;
75005;SDS011;63553;51.814;4.600;2022-11-11T03:38:07;19.90;;;9.88;;
75005;SDS011;63553;51.814;4.600;2022-11-11T03:41:01;15.75;;;8.95;;
75005;SDS011;63553;51.814;4.600;2022-11-11T03:43:27;17.73;;;10.52;;
75005;SDS011;63553;51.814;4.600;2022-11-11T03:45:55;20.25;;;9.85;;
75005;SDS011;63553;51.814;4.600;2022-11-11T03:48:23;17.90;;;9.30;;
75005;SDS011;63553;51.814;4.600;2022-11-11T03:50:49;19.63;;;10.10;;
75005;SDS011;63553;51.814;4.600;2022-11-11T03:53:15;16.63;;;10.02;;
75005;SDS011;63553;51.814;4.600;2022-11-11T03:55:43;19.13;;;10.60;;
75005;SDS011;63553;51.814;4.600;2022-11-11T03:58:09;16.23;;;9.43;;
75005;SDS011;63553;51.814;4.600;2022-11-11T04:00:35;19.53;;;9.83;;
75005;SDS011;63553;51.814;4.600;2022-11-11T04:03:01;20.02;;;10.25;;
75005;SDS011;63553;51.814;4.600;2022-11-11T04:05:45;19.05;;;9.40;;
75005;SDS011;63553;51.814;4.600;2022-11-11T04:08:29;20.88;;;10.15;;
75005;SDS011;63553;51.814;4.600;2022-11-11T04:11:14;20.38;;;10.05;;
75005;SDS011;63553;51.814;4.600;2022-11-11T04:13:48;17.50;;;9.40;;
75005;SDS011;63553;51.814;4.600;2022-11-11T04:16:33;16.35;;;9.82;;
75005;SDS011;63553;51.814;4.600;2022-11-11T04:18:58;16.57;;;9.60;;
75005;SDS011;63553;51.814;4.600;2022-11-11T04:21:42;16.77;;;9.60;;
75005;SDS011;63553;51.814;4.600;2022-11-11T04:24:08;22.57;;;10.13;;
75005;SDS011;63553;51.814;4.600;2022-11-11T04:26:57;17.42;;;9.90;;
75005;SDS011;63553;51.814;4.600;2022-11-11T04:29:24;16.30;;;9.07;;
75005;SDS011;63553;51.814;4.600;2022-11-11T04:31:53;17.45;;;9.13;;
75005;SDS011;63553;51.814;4.600;2022-11-11T04:34:37;16.08;;;9.40;;
75005;SDS011;63553;51.814;4.600;2022-11-11T04:37:03;17.08;;;9.20;;
75005;SDS011;63553;51.814;4.600;2022-11-11T04:39:29;15.73;;;9.10;;
75005;SDS011;63553;51.814;4.600;2022-11-11T04:42:13;16.75;;;9.25;;
75005;SDS011;63553;51.814;4.600;2022-11-11T04:44:38;18.00;;;9.43;;
75005;SDS011;63553;51.814;4.600;2022-11-11T04:49:47;15.27;;;8.40;;
75005;SDS011;63553;51.814;4.600;2022-11-11T04:52:12;17.30;;;8.60;;
75005;SDS011;63553;51.814;4.600;2022-11-11T04:54:56;17.33;;;8.73;;
75005;SDS011;63553;51.814;4.600;2022-11-11T04:57:42;16.08;;;8.32;;
75005;SDS011;63553;51.814;4.600;2022-11-11T05:00:10;12.18;;;8.18;;
75005;SDS011;63553;51.814;4.600;2022-11-11T05:02:37;13.52;;;8.52;;
75005;SDS011;63553;51.814;4.600;2022-11-11T05:05:22;15.48;;;8.25;;
75005;SDS011;63553;51.814;4.600;2022-11-11T05:07:48;14.23;;;8.55;;
75005;SDS011;63553;51.814;4.600;2022-11-11T05:10:32;22.95;;;10.45;;
75005;SDS011;63553;51.814;4.600;2022-11-11T05:12:57;22.47;;;9.83;;
75005;SDS011;63553;51.814;4.600;2022-11-11T05:15:43;18.17;;;9.32;;
75005;SDS011;63553;51.814;4.600;2022-11-11T05:18:27;17.13;;;9.63;;
75005;SDS011;63553;51.814;4.600;2022-11-11T05:21:15;14.82;;;8.68;;
75005;SDS011;63553;51.814;4.600;2022-11-11T05:23:48;18.08;;;9.00;;
75005;SDS011;63553;51.814;4.600;2022-11-11T05:26:32;15.48;;;9.20;;
75005;SDS011;63553;51.814;4.600;2022-11-11T05:28:58;15.95;;;8.45;;
75005;SDS011;63553;51.814;4.600;2022-11-11T05:31:23;14.30;;;8.10;;
75005;SDS011;63553;51.814;4.600;2022-11-11T05:33:48;14.68;;;7.78;;
75005;SDS011;63553;51.814;4.600;2022-11-11T05:36:14;15.73;;;9.20;;
75005;SDS011;63553;51.814;4.600;2022-11-11T05:38:39;15.23;;;9.00;;
75005;SDS011;63553;51.814;4.600;2022-11-11T05:41:05;13.50;;;8.35;;
75005;SDS011;63553;51.814;4.600;2022-11-11T05:43:31;15.63;;;8.63;;
75005;SDS011;63553;51.814;4.600;2022-11-11T05:45:56;17.77;;;9.23;;
75005;SDS011;63553;51.814;4.600;2022-11-11T05:48:22;13.23;;;8.70;;
75005;SDS011;63553;51.814;4.600;2022-11-11T05:50:47;15.45;;;9.10;;
75005;SDS011;63553;51.814;4.600;2022-11-11T05:53:12;15.30;;;8.57;;
75005;SDS011;63553;51.814;4.600;2022-11-11T05:55:38;13.67;;;9.20;;
75005;SDS011;63553;51.814;4.600;2022-11-11T05:58:03;14.57;;;8.83;;
75005;SDS011;63553;51.814;4.600;2022-11-11T06:00:28;14.67;;;9.53;;
75005;SDS011;63553;51.814;4.600;2022-11-11T06:02:53;15.93;;;9.07;;
75005;SDS011;63553;51.814;4.600;2022-11-11T06:05:19;16.37;;;8.77;;
75005;SDS011;63553;51.814;4.600;2022-11-11T06:07:44;13.40;;;8.45;;
75005;SDS011;63553;51.814;4.600;2022-11-11T06:10:10;15.33;;;8.80;;
75005;SDS011;63553;51.814;4.600;2022-11-11T06:12:54;17.05;;;9.20;;
75005;SDS011;63553;51.814;4.600;2022-11-11T06:15:37;18.65;;;9.52;;
75005;SDS011;63553;51.814;4.600;2022-11-11T06:18:07;18.35;;;9.23;;
75005;SDS011;63553;51.814;4.600;2022-11-11T06:20:32;16.03;;;9.80;;
75005;SDS011;63553;51.814;4.600;2022-11-11T06:22:59;16.80;;;8.95;;
75005;SDS011;63553;51.814;4.600;2022-11-11T06:25:30;17.70;;;9.02;;
75005;SDS011;63553;51.814;4.600;2022-11-11T06:28:16;16.13;;;8.50;;
75005;SDS011;63553;51.814;4.600;2022-11-11T06:30:42;15.65;;;9.52;;
75005;SDS011;63553;51.814;4.600;2022-11-11T06:33:07;16.42;;;9.20;;
75005;SDS011;63553;51.814;4.600;2022-11-11T06:35:34;15.48;;;9.30;;
75005;SDS011;63553;51.814;4.600;2022-11-11T06:38:00;16.70;;;9.80;;
75005;SDS011;63553;51.814;4.600;2022-11-11T06:40:26;17.27;;;9.95;;
75005;SDS011;63553;51.814;4.600;2022-11-11T06:42:52;18.60;;;9.48;;
75005;SDS011;63553;51.814;4.600;2022-11-11T06:45:18;18.65;;;10.30;;
75005;SDS011;63553;51.814;4.600;2022-11-11T06:47:43;19.63;;;9.93;;
75005;SDS011;63553;51.814;4.600;2022-11-11T06:50:09;18.60;;;10.07;;
75005;SDS011;63553;51.814;4.600;2022-11-11T06:52:34;18.88;;;10.93;;
75005;SDS011;63553;51.814;4.600;2022-11-11T06:54:59;19.93;;;10.87;;
75005;SDS011;63553;51.814;4.600;2022-11-11T06:57:25;26.20;;;11.27;;
75005;SDS011;63553;51.814;4.600;2022-11-11T06:59:50;19.70;;;10.93;;
75005;SDS011;63553;51.814;4.600;2022-11-11T07:02:15;24.30;;;10.77;;
75005;SDS011;63553;51.814;4.600;2022-11-11T07:04:41;18.45;;;10.73;;
75005;SDS011;63553;51.814;4.600;2022-11-11T07:07:06;21.17;;;9.90;;
75005;SDS011;63553;51.814;4.600;2022-11-11T07:09:31;19.85;;;9.93;;
75005;SDS011;63553;51.814;4.600;2022-11-11T07:11:57;15.67;;;9.23;;
75005;SDS011;63553;51.814;4.600;2022-11-11T07:14:23;15.90;;;9.63;;
75005;SDS011;63553;51.814;4.600;2022-11-11T07:16:48;17.73;;;9.77;;
75005;SDS011;63553;51.814;4.600;2022-11-11T07:19:14;15.00;;;9.87;;
75005;SDS011;63553;51.814;4.600;2022-11-11T07:21:39;16.63;;;10.53;;
75005;SDS011;63553;51.814;4.600;2022-11-11T07:24:04;19.13;;;10.67;;
75005;SDS011;63553;51.814;4.600;2022-11-11T07:26:30;17.75;;;10.30;;
75005;SDS011;63553;51.814;4.600;2022-11-11T07:28:55;15.70;;;9.50;;
75005;SDS011;63553;51.814;4.600;2022-11-11T07:31:21;15.40;;;8.88;;
75005;SDS011;63553;51.814;4.600;2022-11-11T07:33:46;18.37;;;9.17;;
75005;SDS011;63553;51.814;4.600;2022-11-11T07:36:11;16.27;;;9.50;;
75005;SDS011;63553;51.814;4.600;2022-11-11T07:38:36;17.63;;;9.50;;
75005;SDS011;63553;51.814;4.600;2022-11-11T07:41:02;14.20;;;9.30;;
75005;SDS011;63553;51.814;4.600;2022-11-11T07:43:28;16.60;;;9.38;;
75005;SDS011;63553;51.814;4.600;2022-11-11T07:45:53;16.93;;;9.43;;
75005;SDS011;63553;51.814;4.600;2022-11-11T07:48:18;15.33;;;9.23;;
75005;SDS011;63553;51.814;4.600;2022-11-11T07:50:43;14.77;;;8.90;;
75005;SDS011;63553;51.814;4.600;2022-11-11T07:53:09;16.07;;;9.87;;
75005;SDS011;63553;51.814;4.600;2022-11-11T07:55:34;16.87;;;9.03;;
75005;SDS011;63553;51.814;4.600;2022-11-11T07:57:59;15.13;;;8.90;;
75005;SDS011;63553;51.814;4.600;2022-11-11T08:00:26;15.18;;;10.10;;
75005;SDS011;63553;51.814;4.600;2022-11-11T08:02:51;16.95;;;10.60;;
75005;SDS011;63553;51.814;4.600;2022-11-11T08:05:17;16.93;;;8.70;;
75005;SDS011;63553;51.814;4.600;2022-11-11T08:07:42;20.27;;;10.60;;
75005;SDS011;63553;51.814;4.600;2022-11-11T08:10:08;12.80;;;8.98;;
75005;SDS011;63553;51.814;4.600;2022-11-11T08:12:35;19.63;;;9.77;;
75005;SDS011;63553;51.814;4.600;2022-11-11T08:15:19;14.63;;;8.32;;
75005;SDS011;63553;51.814;4.600;2022-11-11T08:17:44;16.67;;;9.73;;
75005;SDS011;63553;51.814;4.600;2022-11-11T08:20:10;14.93;;;8.73;;
75005;SDS011;63553;51.814;4.600;2022-11-11T08:22:39;15.93;;;9.65;;
75005;SDS011;63553;51.814;4.600;2022-11-11T08:25:06;18.17;;;10.15;;
75005;SDS011;63553;51.814;4.600;2022-11-11T08:27:33;18.20;;;9.85;;
75005;SDS011;63553;51.814;4.600;2022-11-11T08:29:59;14.82;;;9.07;;
75005;SDS011;63553;51.814;4.600;2022-11-11T08:32:25;15.98;;;8.85;;
75005;SDS011;63553;51.814;4.600;2022-11-11T08:34:50;15.70;;;8.83;;
75005;SDS011;63553;51.814;4.600;2022-11-11T08:37:15;11.73;;;8.60;;
75005;SDS011;63553;51.814;4.600;2022-11-11T08:39:41;16.73;;;8.73;;
75005;SDS011;63553;51.814;4.600;2022-11-11T08:42:06;15.33;;;7.37;;
75005;SDS011;63553;51.814;4.600;2022-11-11T08:44:32;14.30;;;8.10;;
75005;SDS011;63553;51.814;4.600;2022-11-11T08:46:57;13.05;;;8.02;;
75005;SDS011;63553;51.814;4.600;2022-11-11T08:49:22;13.40;;;7.97;;
75005;SDS011;63553;51.814;4.600;2022-11-11T08:51:48;12.80;;;7.77;;
75005;SDS011;63553;51.814;4.600;2022-11-11T08:54:13;12.67;;;8.63;;
75005;SDS011;63553;51.814;4.600;2022-11-11T08:56:38;16.67;;;8.50;;
75005;SDS011;63553;51.814;4.600;2022-11-11T08:59:04;91.57;;;15.15;;
75005;SDS011;63553;51.814;4.600;2022-11-11T09:01:30;109.97;;;15.00;;
75005;SDS011;63553;51.814;4.600;2022-11-11T09:03:55;177.30;;;18.33;;
75005;SDS011;63553;51.814;4.600;2022-11-11T09:06:20;407.52;;;40.88;;
75005;SDS011;63553;51.814;4.600;2022-11-11T09:08:46;70.03;;;17.43;;
75005;SDS011;63553;51.814;4.600;2022-11-11T09:11:11;13.53;;;8.33;;
75005;SDS011;63553;51.814;4.600;2022-11-11T09:13:36;41.50;;;10.90;;
75005;SDS011;63553;51.814;4.600;2022-11-11T09:16:02;62.72;;;11.73;;
75005;SDS011;63553;51.814;4.600;2022-11-11T09:18:27;20.70;;;10.25;;
75005;SDS011;63553;51.814;4.600;2022-11-11T09:20:56;18.33;;;9.13;;
75005;SDS011;63553;51.814;4.600;2022-11-11T09:23:23;13.52;;;7.32;;
75005;SDS011;63553;51.814;4.600;2022-11-11T09:25:48;15.33;;;8.13;;
75005;SDS011;63553;51.814;4.600;2022-11-11T09:28:13;15.90;;;7.30;;
75005;SDS011;63553;51.814;4.600;2022-11-11T09:30:39;12.57;;;7.18;;
75005;SDS011;63553;51.814;4.600;2022-11-11T09:33:04;13.93;;;6.88;;
75005;SDS011;63553;51.814;4.600;2022-11-11T09:35:30;13.40;;;7.30;;
75005;SDS011;63553;51.814;4.600;2022-11-11T09:37:56;13.02;;;7.75;;
75005;SDS011;63553;51.814;4.600;2022-11-11T09:40:24;14.98;;;8.05;;
75005;SDS011;63553;51.814;4.600;2022-11-11T09:45:48;17.05;;;9.27;;
75005;SDS011;63553;51.814;4.600;2022-11-11T09:48:34;14.45;;;9.52;;
75005;SDS011;63553;51.814;4.600;2022-11-11T09:51:15;16.17;;;9.57;;
75005;SDS011;63553;51.814;4.600;2022-11-11T09:53:47;14.95;;;8.90;;
75005;SDS011;63553;51.814;4.600;2022-11-11T09:56:18;14.32;;;8.65;;
75005;SDS011;63553;51.814;4.600;2022-11-11T09:58:50;13.48;;;8.30;;
75005;SDS011;63553;51.814;4.600;2022-11-11T10:01:22;14.63;;;8.13;;
75005;SDS011;63553;51.814;4.600;2022-11-11T10:06:28;8.57;;;6.50;;
75005;SDS011;63553;51.814;4.600;2022-11-11T10:14:14;12.90;;;8.55;;
75005;SDS011;63553;51.814;4.600;2022-11-11T10:22:37;15.02;;;8.45;;
75005;SDS011;63553;51.814;4.600;2022-11-11T10:25:17;15.40;;;8.50;;
75005;SDS011;63553;51.814;4.600;2022-11-11T10:27:45;11.95;;;7.85;;
75005;SDS011;63553;51.814;4.600;2022-11-11T10:30:15;13.18;;;8.25;;
75005;SDS011;63553;51.814;4.600;2022-11-11T10:32:44;12.02;;;7.97;;
75005;SDS011;63553;51.814;4.600;2022-11-11T10:35:21;11.85;;;7.43;;
75005;SDS011;63553;51.814;4.600;2022-11-11T10:38:14;13.27;;;7.65;;
75005;SDS011;63553;51.814;4.600;2022-11-11T10:40:47;10.50;;;7.35;;
75005;SDS011;63553;51.814;4.600;2022-11-11T10:43:23;10.38;;;7.53;;
75005;SDS011;63553;51.814;4.600;2022-11-11T10:51:07;10.52;;;7.25;;
75005;SDS011;63553;51.814;4.600;2022-11-11T10:59:06;10.32;;;7.32;;
75005;SDS011;63553;51.814;4.600;2022-11-11T11:04:49;13.05;;;7.55;;
75005;SDS011;63553;51.814;4.600;2022-11-11T11:07:25;12.98;;;7.25;;
75005;SDS011;63553;51.814;4.600;2022-11-11T11:09:59;11.57;;;7.70;;
75005;SDS011;63553;51.814;4.600;2022-11-11T11:15:03;12.43;;;7.28;;
75005;SDS011;63553;51.814;4.600;2022-11-11T11:25:12;11.20;;;7.18;;
75005;SDS011;63553;51.814;4.600;2022-11-11T11:27:37;12.88;;;7.60;;
75005;SDS011;63553;51.814;4.600;2022-11-11T11:30:10;9.27;;;6.75;;
75005;SDS011;63553;51.814;4.600;2022-11-11T11:32:38;11.07;;;7.18;;
75005;SDS011;63553;51.814;4.600;2022-11-11T11:35:06;11.10;;;6.88;;
75005;SDS011;63553;51.814;4.600;2022-11-11T11:37:33;11.93;;;7.85;;
75005;SDS011;63553;51.814;4.600;2022-11-11T11:40:13;12.65;;;7.40;;
75005;SDS011;63553;51.814;4.600;2022-11-11T11:42:39;12.57;;;8.25;;
75005;SDS011;63553;51.814;4.600;2022-11-11T11:56:12;14.00;;;7.93;;
75005;SDS011;63553;51.814;4.600;2022-11-11T12:01:18;10.65;;;6.75;;
75005;SDS011;63553;51.814;4.600;2022-11-11T12:15:35;9.80;;;6.22;;
75005;SDS011;63553;51.814;4.600;2022-11-11T12:20:55;8.85;;;5.88;;
75005;SDS011;63553;51.814;4.600;2022-11-11T12:32:14;6.55;;;5.22;;
75005;SDS011;63553;51.814;4.600;2022-11-11T12:40:34;8.38;;;5.18;;
75005;SDS011;63553;51.814;4.600;2022-11-11T12:43:13;6.93;;;5.28;;
75005;SDS011;63553;51.814;4.600;2022-11-11T12:46:03;7.93;;;4.80;;
75005;SDS011;63553;51.814;4.600;2022-11-11T12:48:47;5.93;;;4.70;;
75005;SDS011;63553;51.814;4.600;2022-11-11T12:53:59;6.28;;;3.90;;
75005;SDS011;63553;51.814;4.600;2022-11-11T12:56:43;6.43;;;4.55;;
75005;SDS011;63553;51.814;4.600;2022-11-11T13:07:51;5.38;;;3.75;;
75005;SDS011;63553;51.814;4.600;2022-11-11T13:16:03;6.30;;;3.85;;
75005;SDS011;63553;51.814;4.600;2022-11-11T13:21:07;4.63;;;3.67;;
75005;SDS011;63553;51.814;4.600;2022-11-11T13:23:37;4.18;;;3.38;;
75005;SDS011;63553;51.814;4.600;2022-11-11T13:26:03;16.20;;;7.37;;
75005;SDS011;63553;51.814;4.600;2022-11-11T13:28:40;5.70;;;3.60;;
75005;SDS011;63553;51.814;4.600;2022-11-11T13:33:53;5.35;;;3.47;;
75005;SDS011;63553;51.814;4.600;2022-11-11T13:36:23;6.43;;;3.67;;
75005;SDS011;63553;51.814;4.600;2022-11-11T13:38:52;4.35;;;3.70;;
75005;SDS011;63553;51.814;4.600;2022-11-11T13:43:52;4.15;;;3.65;;
75005;SDS011;63553;51.814;4.600;2022-11-11T13:48:52;5.93;;;3.90;;
75005;SDS011;63553;51.814;4.600;2022-11-11T13:51:27;5.63;;;4.03;;
75005;SDS011;63553;51.814;4.600;2022-11-11T13:53:55;5.78;;;3.90;;
75005;SDS011;63553;51.814;4.600;2022-11-11T13:56:24;6.70;;;3.70;;
75005;SDS011;63553;51.814;4.600;2022-11-11T13:59:30;3.95;;;3.42;;
75005;SDS011;63553;51.814;4.600;2022-11-11T14:02:12;6.55;;;3.95;;
75005;SDS011;63553;51.814;4.600;2022-11-11T14:12:41;6.53;;;3.63;;
75005;SDS011;63553;51.814;4.600;2022-11-11T14:23:14;6.63;;;4.18;;
75005;SDS011;63553;51.814;4.600;2022-11-11T14:28:30;6.53;;;3.53;;
75005;SDS011;63553;51.814;4.600;2022-11-11T14:30:59;6.50;;;3.72;;
75005;SDS011;63553;51.814;4.600;2022-11-11T14:33:57;3.67;;;3.38;;
75005;SDS011;63553;51.814;4.600;2022-11-11T14:52:52;6.82;;;4.07;;
75005;SDS011;63553;51.814;4.600;2022-11-11T15:00:33;6.18;;;3.47;;
75005;SDS011;63553;51.814;4.600;2022-11-11T15:03:24;5.82;;;3.88;;
75005;SDS011;63553;51.814;4.600;2022-11-11T15:16:47;4.90;;;4.00;;
75005;SDS011;63553;51.814;4.600;2022-11-11T15:30:34;6.05;;;4.07;;
75005;SDS011;63553;51.814;4.600;2022-11-11T15:33:15;8.20;;;4.07;;
75005;SDS011;63553;51.814;4.600;2022-11-11T15:38:31;8.05;;;4.30;;
75005;SDS011;63553;51.814;4.600;2022-11-11T15:40:57;8.63;;;4.57;;
75005;SDS011;63553;51.814;4.600;2022-11-11T15:43:25;7.15;;;4.40;;
75005;SDS011;63553;51.814;4.600;2022-11-11T15:45:53;10.55;;;4.47;;
75005;SDS011;63553;51.814;4.600;2022-11-11T15:48:21;6.18;;;4.32;;
75005;SDS011;63553;51.814;4.600;2022-11-11T15:50:49;6.70;;;4.55;;
75005;SDS011;63553;51.814;4.600;2022-11-11T15:53:19;11.37;;;5.27;;
75005;SDS011;63553;51.814;4.600;2022-11-11T15:55:53;8.10;;;4.97;;
75005;SDS011;63553;51.814;4.600;2022-11-11T15:58:24;8.13;;;5.10;;
75005;SDS011;63553;51.814;4.600;2022-11-11T16:00:52;8.90;;;4.80;;
75005;SDS011;63553;51.814;4.600;2022-11-11T16:03:41;8.90;;;5.35;;
75005;SDS011;63553;51.814;4.600;2022-11-11T16:06:08;6.57;;;4.45;;
75005;SDS011;63553;51.814;4.600;2022-11-11T16:08:35;6.93;;;4.80;;
75005;SDS011;63553;51.814;4.600;2022-11-11T16:11:04;5.95;;;4.43;;
75005;SDS011;63553;51.814;4.600;2022-11-11T16:13:34;10.93;;;4.78;;
75005;SDS011;63553;51.814;4.600;2022-11-11T16:16:06;8.57;;;4.95;;
75005;SDS011;63553;51.814;4.600;2022-11-11T16:18:39;12.13;;;5.00;;
75005;SDS011;63553;51.814;4.600;2022-11-11T16:21:10;11.48;;;5.40;;
75005;SDS011;63553;51.814;4.600;2022-11-11T16:23:45;9.88;;;5.35;;
75005;SDS011;63553;51.814;4.600;2022-11-11T16:26:12;10.55;;;5.30;;
75005;SDS011;63553;51.814;4.600;2022-11-11T16:29:00;10.23;;;5.22;;
75005;SDS011;63553;51.814;4.600;2022-11-11T16:33:59;8.80;;;5.25;;
75005;SDS011;63553;51.814;4.600;2022-11-11T16:39:30;7.07;;;4.57;;
75005;SDS011;63553;51.814;4.600;2022-11-11T16:41:57;10.73;;;5.38;;
75005;SDS011;63553;51.814;4.600;2022-11-11T16:44:34;11.32;;;4.85;;
75005;SDS011;63553;51.814;4.600;2022-11-11T16:47:05;6.90;;;4.82;;
75005;SDS011;63553;51.814;4.600;2022-11-11T16:49:59;7.95;;;4.78;;
75005;SDS011;63553;51.814;4.600;2022-11-11T16:55:34;7.82;;;4.68;;
75005;SDS011;63553;51.814;4.600;2022-11-11T16:58:09;8.75;;;4.53;;
75005;SDS011;63553;51.814;4.600;2022-11-11T17:00:37;8.80;;;4.70;;
75005;SDS011;63553;51.814;4.600;2022-11-11T17:03:14;10.30;;;4.82;;
75005;SDS011;63553;51.814;4.600;2022-11-11T17:05:48;8.68;;;4.60;;
75005;SDS011;63553;51.814;4.600;2022-11-11T17:08:26;12.63;;;5.60;;
75005;SDS011;63553;51.814;4.600;2022-11-11T17:10:52;6.90;;;4.78;;
75005;SDS011;63553;51.814;4.600;2022-11-11T17:13:18;6.90;;;4.57;;
75005;SDS011;63553;51.814;4.600;2022-11-11T17:15:43;7.07;;;4.30;;
75005;SDS011;63553;51.814;4.600;2022-11-11T17:18:08;7.72;;;4.93;;
75005;SDS011;63553;51.814;4.600;2022-11-11T17:20:34;9.65;;;4.90;;
75005;SDS011;63553;51.814;4.600;2022-11-11T17:22:59;8.82;;;5.13;;
75005;SDS011;63553;51.814;4.600;2022-11-11T17:25:27;7.53;;;4.53;;
75005;SDS011;63553;51.814;4.600;2022-11-11T17:27:52;6.97;;;4.43;;
75005;SDS011;63553;51.814;4.600;2022-11-11T17:30:17;7.43;;;4.50;;
75005;SDS011;63553;51.814;4.600;2022-11-11T17:32:43;4.97;;;3.88;;
75005;SDS011;63553;51.814;4.600;2022-11-11T17:35:12;8.57;;;5.35;;
75005;SDS011;63553;51.814;4.600;2022-11-11T17:37:37;6.80;;;4.30;;
75005;SDS011;63553;51.814;4.600;2022-11-11T17:40:07;8.13;;;4.28;;
75005;SDS011;63553;51.814;4.600;2022-11-11T17:42:34;4.88;;;3.53;;
75005;SDS011;63553;51.814;4.600;2022-11-11T17:45:00;7.55;;;4.65;;
75005;SDS011;63553;51.814;4.600;2022-11-11T17:47:26;7.55;;;4.68;;
75005;SDS011;63553;51.814;4.600;2022-11-11T17:49:52;5.97;;;3.92;;
75005;SDS011;63553;51.814;4.600;2022-11-11T17:52:17;6.88;;;4.70;;
75005;SDS011;63553;51.814;4.600;2022-11-11T17:54:43;6.78;;;4.10;;
75005;SDS011;63553;51.814;4.600;2022-11-11T17:57:08;7.00;;;4.10;;
75005;SDS011;63553;51.814;4.600;2022-11-11T17:59:33;5.27;;;4.20;;
75005;SDS011;63553;51.814;4.600;2022-11-11T18:01:59;4.77;;;3.97;;
75005;SDS011;63553;51.814;4.600;2022-11-11T18:04:25;7.10;;;4.30;;
75005;SDS011;63553;51.814;4.600;2022-11-11T18:06:51;7.57;;;4.38;;